Main page
METAR-TAF:

METAR-TAF

Airports :

RAF Benson

Benson, England

latitude: 51-37N, longitude: 001-05W, elevation: 63 m

Current weather observation

The report was made 33 minutes ago, at 21:50 UTC
Wind 6 kt from the Southwest
Temperature 12°C
Humidity 88%
Pressure 1017 hPa
Visibility 10 km or more
no clouds below 1500 m and no cumulonimbus

METAR: EGUB 252150Z 23006KT CAVOK 12/10 Q1017 NOSIG RMK BLU BLU

Time: 23:23 (22:23 UTC)

Forecast

The report was made 2 hours and 56 minutes ago, at 19:27 UTC
Forecast valid from 25 at 21 UTC to 26 at 03 UTC
Wind 9 kt from the West/Southwest
Visibility 10 km or more
Scattered clouds at a height of 3000 ft

TAF: EGUB 251927Z 2521/2603 25009KT 9999 SCT030

Weather observations and forecasts of more than 4000 airports (METAR and TAF reports).

The available stations are represented by yellow and red dots on the map.

Hover mouse over dot to see the name of the station.

Then click to see weather observations and forecasts.

To change the map : click on the green buttons with a black cross to zoom in, on the green button with a dash to zoom out, or on the green arrows for adjacent maps.


METAR-TAF: